createdAt,value
2018-07-05T00:01:24.069Z,3.20
2018-07-05T00:04:03.033Z,3.30
2018-07-05T00:06:42.122Z,3.40
2018-07-05T00:09:21.065Z,2.80
2018-07-05T00:12:00.273Z,3.30
2018-07-05T00:14:39.599Z,3.17
2018-07-05T00:17:12.559Z,2.60
2018-07-05T00:19:53.151Z,2.87
2018-07-05T00:22:32.014Z,3.70
2018-07-05T00:25:11.202Z,2.90
2018-07-05T00:27:50.040Z,3.00
2018-07-05T00:30:29.210Z,3.37
2018-07-05T00:33:08.489Z,3.13
2018-07-05T00:35:47.466Z,3.37
2018-07-05T00:38:27.049Z,3.13
2018-07-05T00:41:06.491Z,3.93
2018-07-05T00:43:45.945Z,2.80
2018-07-05T00:46:25.458Z,3.10
2018-07-05T00:49:04.882Z,3.47
2018-07-05T00:51:44.137Z,3.63
2018-07-05T00:54:22.960Z,3.50
2018-07-05T00:57:02.025Z,3.00
2018-07-05T00:59:42.532Z,3.97
2018-07-05T01:02:21.866Z,3.00
2018-07-05T01:05:00.960Z,3.37
2018-07-05T01:07:40.512Z,3.10
2018-07-05T01:10:19.996Z,3.30
2018-07-05T01:12:59.401Z,3.17
2018-07-05T01:15:39.980Z,3.47
2018-07-05T01:18:19.568Z,3.50
2018-07-05T01:20:58.441Z,3.43
2018-07-05T01:23:37.552Z,3.50
2018-07-05T01:26:16.595Z,3.60
2018-07-05T01:28:55.816Z,3.73
2018-07-05T01:31:34.788Z,3.57
2018-07-05T01:34:13.880Z,3.43
2018-07-05T01:36:54.240Z,4.00
2018-07-05T01:39:34.536Z,3.73
2018-07-05T01:42:14.104Z,3.60
2018-07-05T01:44:53.388Z,4.13
2018-07-05T01:47:33.281Z,3.53
2018-07-05T01:50:06.425Z,3.80
2018-07-05T01:52:47.185Z,3.80
2018-07-05T01:55:26.225Z,3.40
2018-07-05T01:58:05.169Z,3.90
2018-07-05T02:00:44.769Z,3.60
2018-07-05T02:03:23.679Z,3.60
2018-07-05T02:06:02.858Z,4.27
2018-07-05T02:08:42.521Z,4.00
2018-07-05T02:11:15.742Z,3.40
2018-07-05T02:13:54.793Z,3.83
2018-07-05T02:16:34.689Z,3.93
2018-07-05T02:19:13.771Z,4.50
2018-07-05T02:21:52.825Z,3.93
2018-07-05T02:24:31.776Z,4.23
2018-07-05T02:27:10.996Z,3.80
2018-07-05T02:29:50.178Z,4.10
2018-07-05T02:32:29.520Z,3.90
2018-07-05T02:35:08.407Z,3.90
2018-07-05T02:37:53.866Z,4.10
2018-07-05T02:40:33.383Z,4.43
2018-07-05T02:43:12.827Z,4.20
2018-07-05T02:45:52.072Z,4.03
2018-07-05T02:48:31.602Z,3.67
2018-07-05T02:51:04.788Z,3.53
2018-07-05T02:53:43.898Z,3.67
2018-07-05T02:56:22.989Z,3.83
2018-07-05T02:59:02.197Z,3.30
2018-07-05T03:01:41.968Z,3.23
2018-07-05T03:04:20.962Z,3.83
2018-07-05T03:07:01.596Z,3.70
2018-07-05T03:09:40.544Z,3.80
2018-07-05T03:12:20.192Z,4.53
2018-07-05T03:14:59.623Z,3.73
2018-07-05T03:17:38.547Z,3.37
2018-07-05T03:20:17.648Z,4.20
2018-07-05T03:22:50.871Z,3.90
2018-07-05T03:25:30.896Z,4.13
2018-07-05T03:28:09.975Z,3.90
2018-07-05T03:30:49.232Z,4.10
2018-07-05T03:33:28.601Z,4.97
2018-07-05T03:36:07.651Z,4.20
2018-07-05T03:38:47.147Z,4.23
2018-07-05T03:41:27.609Z,4.30
2018-07-05T03:44:07.237Z,4.40
2018-07-05T03:46:46.584Z,4.10
2018-07-05T03:49:25.951Z,4.40
2018-07-05T03:52:05.095Z,4.20
2018-07-05T03:54:43.959Z,3.43
2018-07-05T03:57:23.970Z,4.37
2018-07-05T04:00:03.488Z,5.10
2018-07-05T04:02:42.461Z,4.50
2018-07-05T04:05:21.839Z,4.47
2018-07-05T04:08:00.739Z,3.63
2018-07-05T04:10:40.269Z,4.57
2018-07-05T04:13:19.101Z,3.73
2018-07-05T04:15:58.264Z,5.00
2018-07-05T04:18:37.755Z,3.70
2018-07-05T04:21:17.124Z,4.13
2018-07-05T04:23:56.042Z,4.00
2018-07-05T04:26:35.114Z,3.70
2018-07-05T04:29:15.082Z,3.70
2018-07-05T04:31:48.687Z,3.93
2018-07-05T04:34:29.856Z,3.73
2018-07-05T04:37:09.017Z,3.90
2018-07-05T04:39:48.425Z,4.20
2018-07-05T04:42:27.472Z,3.50
2018-07-05T04:45:07.500Z,3.77
2018-07-05T04:47:49.217Z,4.20
2018-07-05T04:53:22.673Z,3.97
2018-07-05T04:56:01.661Z,3.77
2018-07-05T04:58:40.721Z,4.03
2018-07-05T05:01:20.085Z,4.03
2018-07-05T05:03:58.929Z,3.53
2018-07-05T05:06:38.081Z,3.60
2018-07-05T05:09:17.185Z,3.80
2018-07-05T05:11:56.377Z,3.43
2018-07-05T05:14:36.904Z,3.57
2018-07-05T05:17:16.477Z,3.80
2018-07-05T05:19:55.773Z,3.57
2018-07-05T05:22:35.161Z,3.70
2018-07-05T05:25:14.121Z,3.47
2018-07-05T05:27:53.641Z,3.37
2018-07-05T05:30:32.695Z,3.33
2018-07-05T05:33:12.484Z,3.47
2018-07-05T05:35:51.441Z,3.60
2018-07-05T05:38:31.344Z,3.80
2018-07-05T05:41:04.569Z,3.70
2018-07-05T05:43:43.873Z,4.07
2018-07-05T05:46:23.169Z,3.77
2018-07-05T05:49:03.329Z,3.50
2018-07-05T05:51:42.265Z,3.90
2018-07-05T05:54:21.281Z,3.60
2018-07-05T05:57:00.306Z,3.40
2018-07-05T05:59:40.057Z,3.90
2018-07-05T06:02:13.460Z,3.70
2018-07-05T06:04:52.321Z,3.57
2018-07-05T06:07:31.520Z,4.20
2018-07-05T06:10:10.524Z,3.60
2018-07-05T06:12:50.364Z,3.57
2018-07-05T06:15:29.673Z,3.23
2018-07-05T06:18:10.289Z,3.00
2018-07-05T06:20:49.724Z,3.43
2018-07-05T06:23:29.257Z,3.70
2018-07-05T06:26:02.484Z,3.37
2018-07-05T06:28:41.586Z,3.00
2018-07-05T06:31:21.181Z,3.37
2018-07-05T06:34:00.156Z,3.57
2018-07-05T06:36:34.149Z,2.90
2018-07-05T06:39:13.082Z,2.83
2018-07-05T06:41:52.433Z,3.37
2018-07-05T06:44:31.730Z,3.53
2018-07-05T06:47:11.192Z,3.30
2018-07-05T06:49:50.138Z,3.60
2018-07-05T06:52:29.265Z,3.20
2018-07-05T06:55:08.294Z,3.40
2018-07-05T06:57:47.645Z,3.40
2018-07-05T07:00:27.025Z,3.53
2018-07-05T07:03:00.007Z,3.03
2018-07-05T07:05:39.115Z,3.67
2018-07-05T07:08:18.090Z,3.10
2018-07-05T07:10:58.401Z,3.53
2018-07-05T07:13:37.632Z,3.50
2018-07-05T07:16:17.324Z,3.40
2018-07-05T07:18:56.940Z,3.33
2018-07-05T07:21:36.407Z,3.13
2018-07-05T07:24:15.330Z,3.27
2018-07-05T07:26:54.873Z,3.37
2018-07-05T07:29:34.280Z,3.00
2018-07-05T07:32:13.339Z,3.07
2018-07-05T07:34:52.365Z,2.83
2018-07-05T07:37:31.925Z,4.00
2018-07-05T07:40:10.901Z,3.10
2018-07-05T07:42:38.712Z,3.30
2018-07-05T07:45:05.490Z,3.23
2018-07-05T07:47:31.980Z,3.30
2018-07-05T07:49:58.449Z,3.17
2018-07-05T07:52:25.194Z,2.90
2018-07-05T07:54:53.506Z,3.30
2018-07-05T07:57:19.989Z,3.20
2018-07-05T07:59:46.481Z,3.00
2018-07-05T08:05:14.154Z,3.30
2018-07-05T08:07:41.081Z,2.90
2018-07-05T08:10:07.583Z,3.03
2018-07-05T08:12:34.065Z,2.70
2018-07-05T08:15:01.205Z,3.10
2018-07-05T08:29:02.546Z,2.87
2018-07-05T08:31:29.064Z,3.13
2018-07-05T08:33:55.809Z,3.07
2018-07-05T08:36:22.284Z,2.80
2018-07-05T08:38:49.105Z,2.73
2018-07-05T08:41:15.594Z,3.00
2018-07-05T08:43:42.467Z,2.03
2018-07-05T08:46:08.971Z,2.17
2018-07-05T08:48:35.459Z,2.80
2018-07-05T08:51:01.954Z,3.17
2018-07-05T08:53:30.184Z,2.93
2018-07-05T08:55:56.648Z,2.97
2018-07-05T08:58:23.197Z,2.20
2018-07-05T09:00:50.419Z,2.60
2018-07-05T09:03:17.378Z,2.30
2018-07-05T09:05:43.859Z,2.57
2018-07-05T09:08:10.347Z,2.53
2018-07-05T09:10:36.819Z,2.73
2018-07-05T09:13:05.279Z,2.13
2018-07-05T09:15:32.217Z,2.33
2018-07-05T09:17:59.983Z,3.00
2018-07-05T09:20:26.855Z,2.37
2018-07-05T09:22:53.893Z,2.20
2018-07-05T09:25:20.696Z,2.67
2018-07-05T09:27:48.891Z,2.60
2018-07-05T09:30:15.363Z,2.40
2018-07-05T09:32:42.666Z,2.77
2018-07-05T09:35:09.130Z,3.43
2018-07-05T09:37:36.030Z,3.37
2018-07-05T09:40:02.505Z,3.13
2018-07-05T09:42:29.395Z,2.80
2018-07-05T09:44:56.329Z,2.70
2018-07-05T09:47:22.809Z,3.00
2018-07-05T09:49:50.554Z,2.97
2018-07-05T09:52:17.617Z,3.10
2018-07-05T09:54:44.085Z,2.70
2018-07-05T09:57:11.198Z,2.90
2018-07-05T09:59:37.980Z,2.93
2018-07-05T10:02:05.661Z,2.50
2018-07-05T10:04:32.201Z,2.90
2018-07-05T10:06:58.677Z,3.00
2018-07-05T10:09:25.169Z,2.70
2018-07-05T10:11:51.977Z,2.63
2018-07-05T10:14:18.802Z,2.50
2018-07-05T10:16:45.276Z,2.43
2018-07-05T10:19:13.442Z,2.60
2018-07-05T10:21:40.177Z,2.80
2018-07-05T10:24:06.658Z,3.07
2018-07-05T10:26:33.837Z,3.33
2018-07-05T10:29:12.881Z,2.87
2018-07-05T10:31:52.700Z,2.80
2018-07-05T10:34:19.851Z,3.07
2018-07-05T10:36:46.633Z,2.80
2018-07-05T10:39:13.621Z,2.93
2018-07-05T10:41:52.634Z,2.30
2018-07-05T10:44:32.281Z,2.70
2018-07-05T10:47:05.850Z,4.13
2018-07-05T10:49:46.097Z,3.10
2018-07-05T10:52:25.012Z,3.40
2018-07-05T10:55:04.880Z,5.50
2018-07-05T10:57:43.769Z,3.27
2018-07-05T11:00:23.272Z,3.03
2018-07-05T11:03:03.339Z,3.30
2018-07-05T11:05:42.257Z,3.63
2018-07-05T11:08:21.368Z,3.43
2018-07-05T11:11:00.338Z,2.30
2018-07-05T11:13:40.025Z,3.33
2018-07-05T11:16:19.411Z,3.37
2018-07-05T11:18:59.050Z,2.90
2018-07-05T11:21:38.026Z,3.27
2018-07-05T11:24:17.186Z,3.00
2018-07-05T11:26:56.544Z,2.97
2018-07-05T11:29:35.450Z,2.73
2018-07-05T11:32:14.625Z,3.20
2018-07-05T11:34:53.707Z,2.70
2018-07-05T11:37:33.978Z,2.93
2018-07-05T11:40:12.971Z,2.47
2018-07-05T11:42:52.707Z,2.67
2018-07-05T11:45:32.201Z,2.60
2018-07-05T11:48:11.264Z,2.63
2018-07-05T11:50:50.660Z,2.60
2018-07-05T11:53:30.218Z,2.43
2018-07-05T11:56:09.955Z,2.20
2018-07-05T11:58:48.874Z,2.90
2018-07-05T12:01:28.333Z,2.70
2018-07-05T12:04:07.213Z,2.40
2018-07-05T12:06:46.353Z,2.80
2018-07-05T12:09:25.462Z,2.57
2018-07-05T12:12:05.237Z,2.53
2018-07-05T12:14:44.714Z,2.43
2018-07-05T12:17:24.313Z,2.67
2018-07-05T12:20:03.321Z,2.20
2018-07-05T12:22:42.830Z,2.20
2018-07-05T12:25:21.889Z,2.23
2018-07-05T12:28:01.017Z,2.10
2018-07-05T12:30:39.873Z,2.47
2018-07-05T12:33:19.031Z,1.97
2018-07-05T12:35:58.052Z,4.23
2018-07-05T12:38:38.059Z,2.37
2018-07-05T12:41:18.276Z,1.93
2018-07-05T12:43:57.545Z,2.33
2018-07-05T12:46:36.513Z,2.83
2018-07-05T12:49:15.541Z,2.60
2018-07-05T12:51:55.187Z,2.10
2018-07-05T12:54:33.982Z,2.10
2018-07-05T12:57:13.038Z,2.27
2018-07-05T12:59:52.332Z,2.20
2018-07-05T13:02:32.259Z,2.07
2018-07-05T13:05:11.377Z,2.20
2018-07-05T13:07:50.321Z,1.80
2018-07-05T13:10:29.941Z,2.00
2018-07-05T13:13:09.706Z,2.47
2018-07-05T13:15:49.386Z,2.13
2018-07-05T13:18:28.763Z,2.30
2018-07-05T13:21:07.703Z,2.13
2018-07-05T13:23:46.914Z,2.30
2018-07-05T13:26:25.901Z,2.23
2018-07-05T13:29:06.298Z,2.17
2018-07-05T13:31:39.498Z,2.33
2018-07-05T13:34:19.028Z,2.50
2018-07-05T13:36:58.722Z,2.00
2018-07-05T13:39:38.461Z,2.23
2018-07-05T13:42:17.488Z,2.70
2018-07-05T13:44:56.825Z,2.50
2018-07-05T13:47:36.277Z,2.27
2018-07-05T13:50:15.787Z,2.50
2018-07-05T13:52:54.706Z,2.63
2018-07-05T13:55:33.886Z,2.30
2018-07-05T13:58:13.385Z,1.90
2018-07-05T14:00:53.186Z,1.90
2018-07-05T14:03:32.305Z,2.10
2018-07-05T14:06:11.232Z,2.33
2018-07-05T14:08:44.854Z,2.50
2018-07-05T14:11:24.973Z,2.30
2018-07-05T14:14:04.075Z,2.33
2018-07-05T14:16:43.117Z,2.73
2018-07-05T14:19:22.472Z,2.80
2018-07-05T14:22:01.592Z,2.97
2018-07-05T14:24:40.873Z,2.53
2018-07-05T14:27:20.469Z,2.57
2018-07-05T14:29:59.415Z,2.70
2018-07-05T14:32:38.499Z,2.33
2018-07-05T14:35:17.386Z,2.90
2018-07-05T14:37:57.079Z,3.30
2018-07-05T14:40:36.413Z,3.23
2018-07-05T14:43:10.297Z,3.13
2018-07-05T14:45:49.767Z,3.20
2018-07-05T14:48:28.951Z,2.87
2018-07-05T14:51:07.995Z,3.33
2018-07-05T14:53:46.997Z,7.43
2018-07-05T14:56:26.271Z,4.90
2018-07-05T14:58:59.400Z,3.50
2018-07-05T15:01:39.572Z,4.67
2018-07-05T15:04:18.580Z,3.13
2018-07-05T15:06:57.962Z,2.93
2018-07-05T15:09:37.667Z,2.70
2018-07-05T15:12:16.672Z,2.90
2018-07-05T15:14:55.841Z,2.90
2018-07-05T15:17:36.030Z,2.50
2018-07-05T15:20:15.079Z,2.53
2018-07-05T15:22:54.238Z,2.30
2018-07-05T15:25:33.378Z,3.00
2018-07-05T15:28:12.891Z,6.60
2018-07-05T15:30:52.280Z,7.33
2018-07-05T15:33:25.841Z,3.63
2018-07-05T15:36:05.523Z,2.93
2018-07-05T15:38:45.872Z,2.70
2018-07-05T15:41:25.217Z,3.03
2018-07-05T15:44:04.784Z,3.00
2018-07-05T15:46:44.071Z,2.77
2018-07-05T15:49:22.937Z,2.80
2018-07-05T15:52:01.984Z,3.00
2018-07-05T15:54:41.056Z,3.13
2018-07-05T15:57:21.111Z,3.57
2018-07-05T16:00:01.039Z,3.27
2018-07-05T16:02:40.111Z,3.43
2018-07-05T16:05:20.091Z,3.30
2018-07-05T16:07:59.356Z,3.07
2018-07-05T16:10:38.307Z,2.87
2018-07-05T16:13:17.395Z,3.70
2018-07-05T16:15:56.498Z,2.70
2018-07-05T16:18:36.680Z,3.47
2018-07-05T16:21:15.771Z,3.30
2018-07-05T16:23:54.810Z,3.33
2018-07-05T16:26:33.904Z,2.40
2018-07-05T16:29:13.919Z,2.80
2018-07-05T16:31:53.459Z,3.10
2018-07-05T16:34:32.720Z,3.13
2018-07-05T16:37:12.219Z,2.70
2018-07-05T16:39:51.849Z,3.20
2018-07-05T16:42:31.290Z,3.47
2018-07-05T16:45:10.634Z,3.10
2018-07-05T16:47:50.019Z,2.80
2018-07-05T16:50:28.948Z,3.40
2018-07-05T16:53:08.086Z,3.27
2018-07-05T16:55:47.106Z,3.43
2018-07-05T16:58:26.167Z,3.30
2018-07-05T17:01:06.308Z,3.33
2018-07-05T17:03:45.698Z,3.60
2018-07-05T17:06:24.689Z,3.90
2018-07-05T17:09:04.474Z,6.00
2018-07-05T17:11:43.610Z,6.70
2018-07-05T17:14:22.806Z,6.53
2018-07-05T17:17:02.442Z,7.03
2018-07-05T17:19:41.468Z,8.60
2018-07-05T17:22:20.543Z,8.40
2018-07-05T17:25:00.125Z,9.83
2018-07-05T17:27:39.061Z,9.60
2018-07-05T17:30:18.641Z,6.50
2018-07-05T17:32:57.521Z,6.73
2018-07-05T17:35:36.601Z,7.20
2018-07-05T17:38:16.337Z,7.20
2018-07-05T17:40:55.569Z,7.30
2018-07-05T17:43:34.929Z,6.90
2018-07-05T17:46:08.133Z,5.57
2018-07-05T17:48:47.201Z,6.27
2018-07-05T17:51:26.326Z,6.13
2018-07-05T17:54:06.949Z,6.40
2018-07-05T17:56:46.580Z,4.83
2018-07-05T17:59:26.441Z,5.23
2018-07-05T18:02:07.306Z,5.77
2018-07-05T18:04:46.320Z,6.70
2018-07-05T18:07:25.409Z,6.10
2018-07-05T18:10:04.577Z,6.40
2018-07-05T18:12:44.480Z,6.80
2018-07-05T18:15:25.291Z,6.47
2018-07-05T18:18:04.730Z,6.60
2018-07-05T18:20:43.773Z,7.37
2018-07-05T18:23:22.850Z,6.13
2018-07-05T18:25:56.316Z,6.70
2018-07-05T18:28:36.352Z,6.57
2018-07-05T18:31:15.290Z,6.33
2018-07-05T18:33:54.544Z,6.20
2018-07-05T18:36:34.220Z,6.90
2018-07-05T18:39:13.562Z,8.90
2018-07-05T18:41:52.991Z,5.80
2018-07-05T18:44:32.819Z,6.80
2018-07-05T18:47:11.944Z,5.60
2018-07-05T18:49:50.946Z,6.10
2018-07-05T18:52:30.625Z,6.03
2018-07-05T18:55:10.673Z,5.50
2018-07-05T18:57:50.329Z,5.70
2018-07-05T19:00:29.657Z,5.17
2018-07-05T19:03:08.785Z,5.43
2018-07-05T19:05:48.169Z,5.40
2018-07-05T19:08:27.283Z,5.47
2018-07-05T19:11:06.801Z,5.10
2018-07-05T19:13:46.735Z,5.47
2018-07-05T19:16:26.294Z,4.80
2018-07-05T19:19:05.711Z,4.50
2018-07-05T19:21:45.000Z,4.70
2018-07-05T19:24:24.562Z,4.53
2018-07-05T19:27:03.914Z,3.80
2018-07-05T19:29:42.963Z,3.13
2018-07-05T19:32:23.398Z,3.83
2018-07-05T19:35:02.911Z,3.57
2018-07-05T19:37:42.353Z,3.30
2018-07-05T19:40:21.883Z,5.37
2018-07-05T19:43:01.507Z,4.60
2018-07-05T19:45:41.109Z,4.33
2018-07-05T19:48:20.685Z,4.43
2018-07-05T19:50:59.667Z,3.90
2018-07-05T19:53:39.705Z,4.00
2018-07-05T19:56:19.204Z,4.23
2018-07-05T19:58:58.971Z,5.17
2018-07-05T20:01:38.493Z,4.73
2018-07-05T20:04:17.333Z,5.77
2018-07-05T20:06:56.709Z,6.63
2018-07-05T20:09:36.039Z,4.40
2018-07-05T20:12:16.072Z,3.70
2018-07-05T20:14:55.664Z,4.13
2018-07-05T20:17:29.247Z,4.40
2018-07-05T20:20:09.714Z,4.87
2018-07-05T20:22:49.669Z,5.10
2018-07-05T20:25:28.637Z,4.90
2018-07-05T20:28:08.857Z,4.20
2018-07-05T20:30:47.810Z,4.67
2018-07-05T20:33:27.450Z,5.30
2018-07-05T20:36:06.604Z,5.20
2018-07-05T20:38:46.082Z,5.17
2018-07-05T20:41:25.621Z,5.23
2018-07-05T20:43:59.172Z,4.80
2018-07-05T20:46:38.059Z,3.63
2018-07-05T20:49:17.455Z,3.60
2018-07-05T20:51:56.393Z,3.30
2018-07-05T20:54:37.569Z,3.70
2018-07-05T20:57:17.065Z,3.43
2018-07-05T20:59:56.761Z,3.13
2018-07-05T21:02:35.769Z,3.93
2018-07-05T21:05:14.897Z,3.10
2018-07-05T21:07:48.104Z,3.57
2018-07-05T21:10:27.337Z,3.80
2018-07-05T21:13:06.524Z,4.30
2018-07-05T21:15:45.688Z,4.00
2018-07-05T21:18:26.210Z,5.10
2018-07-05T21:21:05.884Z,4.30
2018-07-05T21:23:39.025Z,4.17
2018-07-05T21:26:18.080Z,3.93
2018-07-05T21:28:57.663Z,4.33
2018-07-05T21:31:37.172Z,5.40
2018-07-05T21:34:16.148Z,5.10
2018-07-05T21:36:55.638Z,7.70
2018-07-05T21:39:34.726Z,5.37
2018-07-05T21:42:14.513Z,5.87
2018-07-05T21:44:54.449Z,7.90
2018-07-05T21:47:33.412Z,4.40
2018-07-05T21:50:13.432Z,5.57
2018-07-05T21:52:52.861Z,5.70
2018-07-05T21:55:25.922Z,5.50
2018-07-05T21:58:05.372Z,6.83
2018-07-05T22:00:45.013Z,6.80
2018-07-05T22:03:23.889Z,5.67
2018-07-05T22:06:03.065Z,5.90
2018-07-05T22:08:43.045Z,5.60
2018-07-05T22:11:22.203Z,6.00
2018-07-05T22:14:01.138Z,8.93
2018-07-05T22:16:46.657Z,8.13
2018-07-05T22:19:32.849Z,5.90
2018-07-05T22:22:11.744Z,5.80
2018-07-05T22:24:56.732Z,6.83
2018-07-05T22:27:41.745Z,4.67
2018-07-05T22:30:27.689Z,4.80
2018-07-05T22:33:07.209Z,5.30
2018-07-05T22:35:40.500Z,6.20
2018-07-05T22:38:20.339Z,4.90
2018-07-05T22:40:59.996Z,4.83
2018-07-05T22:43:39.441Z,4.73
2018-07-05T22:46:19.370Z,4.20
2018-07-05T22:48:58.943Z,6.00
2018-07-05T22:51:38.409Z,5.73
2018-07-05T22:54:18.036Z,5.00
2018-07-05T22:56:57.026Z,5.47
2018-07-05T22:59:36.958Z,5.27
2018-07-05T23:02:10.513Z,5.33
2018-07-05T23:04:49.993Z,6.03
2018-07-05T23:07:23.050Z,5.33
2018-07-05T23:10:02.153Z,4.20
2018-07-05T23:12:41.054Z,5.30
2018-07-05T23:15:20.879Z,5.27
2018-07-05T23:18:00.097Z,5.30
2018-07-05T23:20:33.172Z,4.87
2018-07-05T23:23:12.273Z,6.00
2018-07-05T23:25:51.801Z,6.80
2018-07-05T23:28:30.604Z,6.50
2018-07-05T23:31:10.373Z,6.20
2018-07-05T23:33:50.553Z,5.93
2018-07-05T23:36:30.319Z,5.33
2018-07-05T23:39:09.484Z,5.23
2018-07-05T23:41:49.083Z,5.17
2018-07-05T23:44:28.633Z,4.37
2018-07-05T23:47:08.101Z,5.10
2018-07-05T23:49:46.901Z,5.43
2018-07-05T23:52:26.017Z,4.90
2018-07-05T23:55:05.059Z,4.73
2018-07-05T23:57:45.028Z,4.90
